Time;durP1;ratioP1;P1;durP2;ratioP2;P2;SDS_P1;SDS_P2;PMS_P1;PMS_P2;Temp;Humidity;BMP_temperature;BMP_pressure;BME280_temperature;BME280_humidity;BME280_pressure;Samples;Min_cycle;Max_cycle;Signal;HPM_P1;HPM_P2
2022/04/14 00:02:06;;;;;;;13.95;8.18;;;11.00;99.90;;;;;;5092257;28;20047;-69
2022/04/14 00:04:35;;;;;;;9.30;8.30;;;11.00;99.90;;;;;;5111107;28;20142;-69
2022/04/14 00:07:01;;;;;;;12.85;8.00;;;10.90;99.90;;;;;;5092054;28;20506;-69
2022/04/14 00:09:28;;;;;;;17.52;7.90;;;10.90;99.90;;;;;;5111269;28;20134;-68
2022/04/14 00:11:54;;;;;;;12.65;8.25;;;10.90;99.90;;;;;;5110698;28;20096;-70
2022/04/14 00:14:20;;;;;;;16.52;8.52;;;10.80;99.90;;;;;;5110138;28;20054;-69
2022/04/14 00:16:46;;;;;;;13.13;8.05;;;10.80;99.90;;;;;;5092789;28;20047;-68
2022/04/14 00:19:11;;;;;;;11.80;7.18;;;10.90;99.90;;;;;;5111332;28;20054;-69
2022/04/14 00:21:37;;;;;;;10.85;7.75;;;10.80;99.90;;;;;;5097065;28;20054;-69
2022/04/14 00:24:03;;;;;;;9.27;7.85;;;10.80;99.90;;;;;;5111298;27;20053;-69
2022/04/14 00:26:29;;;;;;;12.05;9.25;;;10.80;99.90;;;;;;5110038;27;20053;-69
2022/04/14 00:28:54;;;;;;;12.40;8.85;;;10.70;99.90;;;;;;5125411;27;20118;-69
2022/04/14 00:31:20;;;;;;;11.95;8.60;;;10.70;99.90;;;;;;5126290;27;20051;-69
2022/04/14 00:33:46;;;;;;;13.35;9.07;;;10.70;99.90;;;;;;5116009;27;20039;-69
2022/04/14 00:36:11;;;;;;;10.45;7.72;;;10.70;99.90;;;;;;5100768;28;20044;-69
2022/04/14 00:38:37;;;;;;;11.48;8.73;;;10.70;99.90;;;;;;5098627;27;20043;-69
2022/04/14 00:41:03;;;;;;;10.68;8.70;;;10.60;99.90;;;;;;5115362;27;20047;-69
2022/04/14 00:43:33;;;;;;;13.35;8.45;;;10.60;99.90;;;;;;5134882;27;20040;-69
2022/04/14 00:46:00;;;;;;;17.85;9.38;;;10.60;99.90;;;;;;5107279;28;20052;-69
2022/04/14 00:48:27;;;;;;;10.63;8.88;;;10.50;99.90;;;;;;5095389;28;20056;-69
2022/04/14 00:50:52;;;;;;;10.68;8.02;;;10.50;99.90;;;;;;5113816;28;20053;-69
2022/04/14 00:53:18;;;;;;;11.85;9.77;;;10.50;99.90;;;;;;5096136;28;20039;-69
2022/04/14 00:55:44;;;;;;;12.60;9.15;;;10.40;99.90;;;;;;5113416;28;20051;-69
2022/04/14 00:58:09;;;;;;;11.95;8.98;;;10.40;99.90;;;;;;5113792;28;20074;-69
2022/04/14 01:00:35;;;;;;;15.55;9.27;;;10.30;99.90;;;;;;5095888;28;20072;-69
2022/04/14 01:03:01;;;;;;;14.85;9.50;;;10.30;99.90;;;;;;5112657;28;20051;-69
2022/04/14 01:05:27;;;;;;;17.02;9.75;;;10.30;99.90;;;;;;5095317;28;20074;-69
2022/04/14 01:07:56;;;;;;;22.90;11.13;;;10.20;99.90;;;;;;5095275;28;20040;-69
2022/04/14 01:10:22;;;;;;;14.13;9.82;;;10.20;99.90;;;;;;5094536;28;20092;-69
2022/04/14 01:12:48;;;;;;;16.77;10.95;;;10.20;99.90;;;;;;5095123;28;20043;-69
2022/04/14 01:15:14;;;;;;;19.40;10.95;;;10.10;99.90;;;;;;5113064;28;20051;-69
2022/04/14 01:17:41;;;;;;;15.48;10.38;;;10.10;99.90;;;;;;5112786;28;20048;-69
2022/04/14 01:20:11;;;;;;;21.10;12.02;;;10.10;99.90;;;;;;5113305;28;20054;-69
2022/04/14 01:22:49;;;;;;;15.55;10.65;;;10.10;99.90;;;;;;5094409;28;20605;-69
2022/04/14 01:25:15;;;;;;;17.30;11.45;;;10.10;99.90;;;;;;5094838;28;20067;-69
2022/04/14 01:27:40;;;;;;;18.83;13.05;;;10.00;99.90;;;;;;5113481;28;20058;-69
2022/04/14 01:30:10;;;;;;;16.92;13.38;;;10.00;99.90;;;;;;5112550;28;20035;-70
2022/04/14 01:32:35;;;;;;;19.30;12.88;;;10.00;99.90;;;;;;5112469;28;20051;-69
2022/04/14 01:35:01;;;;;;;15.45;12.80;;;10.00;99.90;;;;;;5095088;28;20100;-70
2022/04/14 01:37:26;;;;;;;21.02;14.02;;;10.00;99.90;;;;;;5112548;28;20075;-69
2022/04/14 01:39:52;;;;;;;25.08;14.50;;;10.00;99.90;;;;;;5112971;28;20050;-70
2022/04/14 01:42:17;;;;;;;18.42;12.95;;;10.00;99.90;;;;;;5113179;28;20048;-69
2022/04/14 01:44:43;;;;;;;19.20;13.45;;;10.00;99.90;;;;;;5094191;28;20478;-69
2022/04/14 01:47:09;;;;;;;19.55;13.10;;;10.00;99.90;;;;;;5094563;28;20450;-69
2022/04/14 01:49:34;;;;;;;17.45;12.75;;;10.00;99.90;;;;;;5112981;28;20374;-69
2022/04/14 01:52:00;;;;;;;17.73;12.48;;;10.00;99.90;;;;;;5112135;28;20063;-70
2022/04/14 01:54:25;;;;;;;21.17;12.70;;;9.90;99.90;;;;;;5112982;28;20042;-69
2022/04/14 01:56:51;;;;;;;18.17;13.88;;;9.90;99.90;;;;;;5094436;28;20126;-70
2022/04/14 01:59:17;;;;;;;19.38;12.82;;;9.80;99.90;;;;;;5112422;28;20039;-70
2022/04/14 02:01:42;;;;;;;21.55;13.45;;;9.80;99.90;;;;;;5112720;28;20517;-69
2022/04/14 02:04:08;;;;;;;21.83;12.93;;;9.80;99.90;;;;;;5094208;28;20042;-70
2022/04/14 02:06:34;;;;;;;18.40;12.80;;;9.70;99.90;;;;;;5112119;28;20039;-70
2022/04/14 02:09:00;;;;;;;21.05;13.10;;;9.70;99.90;;;;;;5112391;28;20146;-70
2022/04/14 02:11:25;;;;;;;16.30;11.82;;;9.60;99.90;;;;;;5112574;28;20127;-69
2022/04/14 02:13:51;;;;;;;17.08;11.15;;;9.60;99.90;;;;;;5093204;28;20405;-71
2022/04/14 02:16:17;;;;;;;17.40;12.73;;;9.60;99.90;;;;;;5094547;28;20051;-70
2022/04/14 02:18:43;;;;;;;19.05;12.25;;;9.50;99.90;;;;;;5093399;28;20050;-70
2022/04/14 02:21:08;;;;;;;20.52;13.27;;;9.50;99.90;;;;;;5093859;28;20048;-70
2022/04/14 02:23:34;;;;;;;20.73;14.68;;;9.40;99.90;;;;;;5112375;28;20052;-70
2022/04/14 02:25:59;;;;;;;18.27;13.90;;;9.30;99.90;;;;;;5111382;28;20494;-69
2022/04/14 02:28:25;;;;;;;17.33;14.05;;;9.30;99.90;;;;;;5112586;28;20056;-69
2022/04/14 02:30:51;;;;;;;20.85;15.10;;;9.30;99.90;;;;;;5093705;28;20044;-70
2022/04/14 02:33:16;;;;;;;23.40;14.65;;;9.30;99.90;;;;;;5111259;28;20047;-69
2022/04/14 02:35:42;;;;;;;20.60;14.38;;;9.20;99.90;;;;;;5094077;28;20048;-71
2022/04/14 02:38:08;;;;;;;23.83;15.32;;;9.20;99.90;;;;;;5093582;28;20555;-70
2022/04/14 02:40:33;;;;;;;20.17;13.85;;;9.20;99.90;;;;;;5092963;28;20052;-69
2022/04/14 02:42:59;;;;;;;22.23;14.38;;;9.20;99.90;;;;;;5111617;28;20096;-69
2022/04/14 02:45:26;;;;;;;22.02;14.20;;;9.10;99.90;;;;;;5093724;28;20047;-69
2022/04/14 02:47:52;;;;;;;25.23;14.95;;;9.10;99.90;;;;;;5092510;28;20142;-70
2022/04/14 02:50:19;;;;;;;23.02;15.43;;;9.10;99.90;;;;;;5111662;28;20085;-69
2022/04/14 02:52:45;;;;;;;20.45;14.88;;;9.10;99.90;;;;;;5093190;28;20143;-70
2022/04/14 02:55:11;;;;;;;21.50;14.63;;;9.10;99.90;;;;;;5110715;28;20134;-69
2022/04/14 02:57:36;;;;;;;18.98;13.20;;;9.10;99.90;;;;;;5093532;28;20047;-69
2022/04/14 03:00:09;;;;;;;28.58;16.35;;;9.10;99.90;;;;;;5111380;28;20035;-70
2022/04/14 03:02:35;;;;;;;22.58;16.38;;;9.00;99.90;;;;;;5111083;28;20458;-69
2022/04/14 03:05:02;;;;;;;23.85;16.02;;;9.00;99.90;;;;;;5111256;28;20051;-69
2022/04/14 03:07:28;;;;;;;26.75;17.98;;;9.00;99.90;;;;;;5111460;28;20482;-69
2022/04/14 03:09:56;;;;;;;26.67;17.75;;;9.00;99.90;;;;;;5092038;28;20051;-70
2022/04/14 03:12:22;;;;;;;30.70;17.27;;;8.90;99.90;;;;;;5111380;28;20100;-69
2022/04/14 03:14:48;;;;;;;25.38;15.95;;;8.90;99.90;;;;;;5093262;28;20126;-69
2022/04/14 03:17:14;;;;;;;26.45;17.02;;;8.90;99.90;;;;;;5111015;28;20054;-69
2022/04/14 03:19:39;;;;;;;25.83;15.63;;;8.90;99.90;;;;;;5111469;28;20337;-69
2022/04/14 03:22:05;;;;;;;26.83;16.92;;;8.90;99.90;;;;;;5092254;28;20527;-69
2022/04/14 03:24:34;;;;;;;19.30;15.35;;;8.80;99.90;;;;;;5093353;28;20131;-69
2022/04/14 03:27:02;;;;;;;24.75;17.25;;;8.80;99.90;;;;;;5092773;28;20051;-69
2022/04/14 03:29:32;;;;;;;25.50;16.55;;;8.80;99.90;;;;;;5092447;28;20059;-69
2022/04/14 03:31:58;;;;;;;23.52;16.92;;;8.80;99.90;;;;;;5092844;28;20490;-69
2022/04/14 03:34:24;;;;;;;23.13;15.63;;;8.80;99.90;;;;;;5093225;28;20101;-69
2022/04/14 03:36:49;;;;;;;25.38;16.65;;;8.70;99.90;;;;;;5091944;28;20055;-69
2022/04/14 03:39:16;;;;;;;24.92;17.20;;;8.70;99.90;;;;;;5111255;28;20051;-69
2022/04/14 03:41:41;;;;;;;18.92;14.50;;;8.60;99.90;;;;;;5111221;28;20406;-68
2022/04/14 03:44:07;;;;;;;23.98;16.30;;;8.60;99.90;;;;;;5092010;28;20040;-69
2022/04/14 03:46:32;;;;;;;20.38;14.45;;;8.50;99.90;;;;;;5092881;28;20046;-69
2022/04/14 03:48:58;;;;;;;27.15;16.08;;;8.50;99.90;;;;;;5092589;28;20047;-69
2022/04/14 03:51:25;;;;;;;23.92;15.85;;;8.50;99.90;;;;;;5091861;28;20052;-69
2022/04/14 03:53:51;;;;;;;26.95;19.13;;;8.50;99.90;;;;;;5111041;28;20058;-70
2022/04/14 03:56:16;;;;;;;19.25;15.27;;;8.40;99.90;;;;;;5094105;28;20043;-69
2022/04/14 03:58:42;;;;;;;24.63;17.45;;;8.50;99.90;;;;;;5114304;28;20078;-69
2022/04/14 04:01:08;;;;;;;26.73;16.88;;;8.40;99.90;;;;;;5114716;28;20044;-69
2022/04/14 04:03:34;;;;;;;26.45;17.70;;;8.30;99.90;;;;;;5096837;28;20051;-69
2022/04/14 04:06:00;;;;;;;23.80;17.10;;;8.30;99.90;;;;;;5095527;28;20062;-69
2022/04/14 04:08:25;;;;;;;25.45;16.27;;;8.30;99.90;;;;;;5096717;28;20138;-69
2022/04/14 04:10:51;;;;;;;23.70;17.02;;;8.30;99.90;;;;;;5114727;28;20531;-70
2022/04/14 04:13:17;;;;;;;20.75;15.13;;;8.20;99.90;;;;;;5114278;28;20127;-69
2022/04/14 04:15:42;;;;;;;23.83;15.43;;;8.20;99.90;;;;;;5096851;28;20044;-69
2022/04/14 04:18:08;;;;;;;21.95;16.50;;;8.10;99.90;;;;;;5113860;28;20044;-69
2022/04/14 04:20:34;;;;;;;24.83;16.70;;;8.10;99.90;;;;;;5096383;28;20108;-69
2022/04/14 04:23:03;;;;;;;26.27;15.27;;;8.10;99.90;;;;;;5114339;28;20050;-69
2022/04/14 04:25:29;;;;;;;22.65;15.50;;;8.10;99.90;;;;;;5095956;28;20043;-69
2022/04/14 04:27:54;;;;;;;20.90;15.07;;;8.10;99.90;;;;;;5114410;28;20130;-69
2022/04/14 04:30:20;;;;;;;21.50;15.43;;;8.00;99.90;;;;;;5114580;28;20044;-69
2022/04/14 04:32:45;;;;;;;26.25;17.45;;;8.00;99.90;;;;;;5113835;28;20075;-69
2022/04/14 04:35:11;;;;;;;31.65;18.35;;;8.00;99.90;;;;;;5113500;27;20043;-69
2022/04/14 04:37:37;;;;;;;22.38;16.90;;;8.00;99.90;;;;;;5109228;27;20063;-69
2022/04/14 04:40:03;;;;;;;22.80;16.33;;;8.10;99.90;;;;;;5118682;27;20074;-70
2022/04/14 04:42:29;;;;;;;22.77;15.65;;;8.00;99.90;;;;;;5116404;27;20111;-69
2022/04/14 04:44:54;;;;;;;22.40;14.23;;;8.00;99.90;;;;;;5116073;27;20605;-69
2022/04/14 04:47:20;;;;;;;25.65;16.48;;;8.00;99.90;;;;;;5104839;28;20044;-69
2022/04/14 04:49:47;;;;;;;19.60;14.93;;;8.00;99.90;;;;;;5113718;28;20486;-69
2022/04/14 04:52:13;;;;;;;29.27;17.52;;;7.90;99.90;;;;;;5112209;28;20054;-71
2022/04/14 04:54:39;;;;;;;25.45;16.83;;;7.90;99.90;;;;;;5095710;28;20052;-69
2022/04/14 04:57:05;;;;;;;22.92;16.80;;;7.90;99.90;;;;;;5127746;27;20046;-69
2022/04/14 04:59:31;;;;;;;25.17;14.18;;;7.90;99.90;;;;;;5116067;27;20517;-69
2022/04/14 05:01:56;;;;;;;18.58;14.70;;;7.80;99.90;;;;;;5115475;27;20063;-69
2022/04/14 05:04:22;;;;;;;23.23;16.30;;;7.90;99.90;;;;;;5115865;27;20074;-69
2022/04/14 05:06:47;;;;;;;25.63;17.00;;;7.80;99.90;;;;;;5133973;27;20058;-69
2022/04/14 05:09:13;;;;;;;21.75;14.18;;;7.80;99.90;;;;;;5086952;28;20042;-69
2022/04/14 05:11:38;;;;;;;21.33;15.52;;;7.80;99.90;;;;;;5095404;28;20050;-69
2022/04/14 05:14:04;;;;;;;24.83;17.85;;;7.80;99.90;;;;;;5113414;28;20067;-68
2022/04/14 05:16:29;;;;;;;25.92;18.38;;;7.80;99.90;;;;;;5112895;28;20097;-69
2022/04/14 05:18:55;;;;;;;29.75;18.27;;;7.90;99.90;;;;;;5094993;28;20047;-69
2022/04/14 05:21:20;;;;;;;26.23;17.88;;;7.90;99.90;;;;;;5113421;28;20089;-69
2022/04/14 05:23:46;;;;;;;25.17;18.90;;;8.00;99.90;;;;;;5113155;28;20043;-69
2022/04/14 05:26:12;;;;;;;30.20;19.30;;;8.00;99.90;;;;;;5113093;28;20051;-69
2022/04/14 05:28:37;;;;;;;28.77;19.95;;;8.00;99.90;;;;;;5094302;28;20499;-69
2022/04/14 05:31:03;;;;;;;32.10;20.23;;;8.00;99.90;;;;;;5128392;27;20039;-69
2022/04/14 05:33:29;;;;;;;25.60;19.85;;;8.10;99.90;;;;;;5133803;27;20050;-69
2022/04/14 05:35:55;;;;;;;28.75;19.75;;;8.20;99.90;;;;;;5114402;27;20476;-70
2022/04/14 05:38:20;;;;;;;31.25;21.13;;;8.10;99.90;;;;;;5129729;27;20405;-69
2022/04/14 05:40:46;;;;;;;27.42;20.85;;;8.10;99.90;;;;;;5113086;28;20043;-69
2022/04/14 05:43:25;;;;;;;34.95;21.30;;;8.20;99.90;;;;;;5110026;27;20035;-69
2022/04/14 05:45:50;;;;;;;31.08;21.70;;;8.30;99.90;;;;;;5133488;27;20136;-69
2022/04/14 05:48:17;;;;;;;32.88;20.48;;;8.30;99.90;;;;;;5133542;27;20051;-69
2022/04/14 05:50:44;;;;;;;33.00;20.98;;;8.40;99.90;;;;;;5114085;27;20137;-69
2022/04/14 05:53:10;;;;;;;28.65;22.63;;;8.40;99.90;;;;;;5133310;27;20406;-70
2022/04/14 05:55:36;;;;;;;35.10;20.33;;;8.50;99.90;;;;;;5096456;28;20043;-69
2022/04/14 05:58:03;;;;;;;31.13;22.15;;;8.60;99.90;;;;;;5122853;27;20397;-69
2022/04/14 06:00:32;;;;;;;34.80;22.38;;;8.60;99.90;;;;;;5133362;27;20050;-69
2022/04/14 06:02:59;;;;;;;32.25;21.63;;;8.70;99.90;;;;;;5132851;27;20478;-69
2022/04/14 06:05:27;;;;;;;28.05;21.27;;;8.80;99.90;;;;;;5130637;27;20058;-69
2022/04/14 06:07:52;;;;;;;36.00;21.55;;;8.80;99.90;;;;;;5094019;28;20058;-70
2022/04/14 06:10:18;;;;;;;27.98;20.17;;;8.90;99.90;;;;;;5094204;28;20032;-69
2022/04/14 06:12:44;;;;;;;31.92;21.90;;;8.90;99.90;;;;;;5093810;28;20039;-69
2022/04/14 06:15:10;;;;;;;29.08;21.65;;;9.00;99.90;;;;;;5093845;28;20052;-70
2022/04/14 06:17:36;;;;;;;34.92;23.23;;;9.10;99.90;;;;;;5112534;28;20040;-70
2022/04/14 06:20:03;;;;;;;32.90;23.00;;;9.10;99.90;;;;;;5116696;27;20039;-70
2022/04/14 06:22:29;;;;;;;35.90;25.60;;;9.20;99.90;;;;;;5096380;27;20048;-70
2022/04/14 06:24:58;;;;;;;38.90;26.33;;;9.30;99.90;;;;;;5113114;27;20131;-70
2022/04/14 06:27:23;;;;;;;43.78;24.55;;;9.40;99.90;;;;;;5096390;28;20071;-70
2022/04/14 06:29:49;;;;;;;36.80;26.38;;;9.50;99.90;;;;;;5094181;28;20086;-70
2022/04/14 06:32:15;;;;;;;42.65;27.67;;;9.50;99.90;;;;;;5111274;28;20051;-69
2022/04/14 06:34:40;;;;;;;34.45;24.38;;;9.60;99.90;;;;;;5093687;28;20486;-70
2022/04/14 06:37:06;;;;;;;32.42;22.90;;;9.60;99.90;;;;;;5111760;28;20039;-70
2022/04/14 06:39:31;;;;;;;30.55;22.85;;;9.60;99.90;;;;;;5093145;28;20442;-70
2022/04/14 06:41:57;;;;;;;33.80;24.17;;;9.70;99.90;;;;;;5093411;28;20040;-70
2022/04/14 06:44:23;;;;;;;31.35;24.27;;;9.80;99.90;;;;;;5093308;28;20101;-70
2022/04/14 06:46:49;;;;;;;41.78;25.30;;;9.90;99.90;;;;;;5091319;27;20054;-70
2022/04/14 06:49:14;;;;;;;36.65;24.27;;;10.00;99.90;;;;;;5100165;28;20043;-70
2022/04/14 06:51:40;;;;;;;38.10;24.50;;;10.10;99.90;;;;;;5110108;27;20054;-70
2022/04/14 06:54:05;;;;;;;33.63;22.52;;;10.10;99.90;;;;;;5102424;28;20078;-71
2022/04/14 06:56:31;;;;;;;38.22;24.13;;;10.20;99.90;;;;;;5091263;28;20486;-70
2022/04/14 06:58:56;;;;;;;29.52;20.77;;;10.30;99.90;;;;;;5080286;27;20070;-70
2022/04/14 07:01:23;;;;;;;35.58;22.35;;;10.40;99.90;;;;;;5106087;27;20050;-70
2022/04/14 07:03:49;;;;;;;28.80;20.10;;;10.50;99.90;;;;;;5118467;27;20509;-69
2022/04/14 07:06:15;;;;;;;31.35;21.40;;;10.60;99.90;;;;;;5113772;27;20468;-70
2022/04/14 07:08:40;;;;;;;30.55;23.95;;;10.70;99.90;;;;;;5119580;27;20051;-70
2022/04/14 07:11:06;;;;;;;33.47;23.77;;;10.80;99.90;;;;;;5111314;28;20080;-70
2022/04/14 07:13:32;;;;;;;29.27;21.65;;;11.70;99.90;;;;;;5093283;28;20070;-70
2022/04/14 07:15:59;;;;;;;32.10;22.02;;;10.90;99.90;;;;;;5126244;27;20039;-70
2022/04/14 07:18:28;;;;;;;32.25;23.13;;;11.00;99.90;;;;;;5132091;28;20054;-70
2022/04/14 07:20:54;;;;;;;30.55;21.88;;;11.10;99.90;;;;;;5113516;28;20050;-70
2022/04/14 07:23:19;;;;;;;27.02;19.70;;;11.20;99.90;;;;;;5112869;28;20537;-70
2022/04/14 07:25:46;;;;;;;33.17;21.83;;;11.20;99.90;;;;;;5113430;28;20431;-70
2022/04/14 07:28:12;;;;;;;31.30;20.25;;;11.40;99.90;;;;;;5130712;28;20089;-70
2022/04/14 07:30:39;;;;;;;31.40;20.45;;;11.40;99.90;;;;;;5132397;27;20054;-70
2022/04/14 07:33:05;;;;;;;29.33;21.52;;;11.50;99.90;;;;;;5112361;28;20126;-70
2022/04/14 07:35:32;;;;;;;29.05;22.33;;;11.60;99.90;;;;;;5104138;28;20036;-70
2022/04/14 07:37:58;;;;;;;29.10;21.48;;;11.60;99.90;;;;;;5088961;27;20071;-71
2022/04/14 07:40:25;;;;;;;29.75;20.70;;;11.80;99.90;;;;;;5092833;27;20057;-70
2022/04/14 07:42:51;;;;;;;27.13;21.35;;;11.80;99.90;;;;;;5100936;27;20558;-70
2022/04/14 07:45:17;;;;;;;26.38;19.55;;;11.90;99.90;;;;;;5127490;27;20073;-67
2022/04/14 07:47:45;;;;;;;23.83;19.00;;;12.00;99.90;;;;;;5102216;27;20494;-69
2022/04/14 07:50:21;;;;;;;24.10;18.48;;;12.10;99.90;;;;;;5111509;28;20059;-71
2022/04/14 07:52:55;;;;;;;30.60;18.95;;;12.20;99.90;;;;;;5121480;27;20051;-73
2022/04/14 07:55:23;;;;;;;24.80;17.95;;;12.40;99.90;;;;;;5115370;28;20053;-78
2022/04/14 07:57:50;;;;;;;20.20;16.85;;;12.50;99.90;;;;;;5096493;28;20085;-82
2022/04/14 08:00:16;;;;;;;27.27;19.45;;;12.60;99.90;;;;;;5097559;28;20436;-81
2022/04/14 08:02:56;;;;;;;22.92;17.88;;;12.70;99.90;;;;;;5097159;28;20043;-80
2022/04/14 08:05:30;;;;;;;25.65;18.20;;;12.80;99.90;;;;;;5114712;28;20123;-79
2022/04/14 08:07:56;;;;;;;24.45;17.85;;;12.90;99.90;;;;;;5115713;27;20050;-81
2022/04/14 08:10:22;;;;;;;22.45;16.80;;;13.00;99.90;;;;;;5125176;27;20081;-80
2022/04/14 08:12:47;;;;;;;27.63;17.42;;;13.10;99.90;;;;;;5116735;27;20067;-80
2022/04/14 08:15:14;;;;;;;22.50;16.30;;;13.20;99.90;;;;;;5103043;27;20050;-81
2022/04/14 08:17:43;;;;;;;23.88;17.55;;;13.30;99.90;;;;;;5122468;27;20043;-81
2022/04/14 08:20:10;;;;;;;22.17;16.02;;;13.40;99.90;;;;;;5124427;27;20077;-80
2022/04/14 08:22:58;;;;;;;23.83;16.17;;;13.50;99.90;;;;;;5114637;28;20088;-80
2022/04/14 08:25:35;;;;;;;18.63;16.08;;;13.50;99.90;;;;;;5103637;28;20498;-84
2022/04/14 08:28:03;;;;;;;20.60;15.30;;;13.60;99.90;;;;;;5114901;27;20047;-86
2022/04/14 08:30:30;;;;;;;19.10;16.00;;;13.70;99.90;;;;;;5132132;27;20039;-86
2022/04/14 08:32:58;;;;;;;21.55;17.70;;;13.80;99.90;;;;;;5113789;28;20061;-87
2022/04/14 08:35:26;;;;;;;16.65;14.82;;;13.90;99.90;;;;;;5114879;28;20069;-87
2022/04/14 08:37:51;;;;;;;17.83;14.18;;;14.00;99.90;;;;;;5095247;28;20394;-85
2022/04/14 08:40:19;;;;;;;21.45;16.35;;;14.10;99.90;;;;;;5092587;27;20036;-83
2022/04/14 08:43:06;;;;;;;17.25;14.02;;;14.20;99.90;;;;;;5117003;27;20093;-83
2022/04/14 08:45:36;;;;;;;17.52;13.18;;;14.20;99.90;;;;;;5109217;27;20072;-83
2022/04/14 08:48:04;;;;;;;17.60;12.55;;;14.30;99.90;;;;;;5113380;28;20039;-83
2022/04/14 08:50:30;;;;;;;19.13;14.32;;;14.40;99.90;;;;;;5095301;28;20052;-84
2022/04/14 08:52:56;;;;;;;14.85;11.98;;;14.50;99.90;;;;;;5100971;28;20387;-85
2022/04/14 08:55:22;;;;;;;16.75;12.85;;;14.50;99.90;;;;;;5107862;28;20490;-85
2022/04/14 08:57:48;;;;;;;16.73;12.63;;;14.60;99.90;;;;;;5082563;28;20093;-86
2022/04/14 09:00:18;;;;;;;16.15;13.43;;;14.70;99.90;;;;;;5098462;27;20195;-87
2022/04/14 09:02:46;;;;;;;17.70;12.23;;;14.70;99.90;;;;;;5102187;27;20047;-88
2022/04/14 09:05:13;;;;;;;15.88;11.65;;;14.80;99.90;;;;;;5125893;27;20071;-87
2022/04/14 09:07:39;;;;;;;16.50;12.00;;;14.80;99.90;;;;;;5095269;28;20105;-83
2022/04/14 09:10:06;;;;;;;14.70;11.65;;;14.90;99.90;;;;;;5113735;28;20474;-84
2022/04/14 09:12:35;;;;;;;13.15;10.65;;;15.00;99.90;;;;;;5114238;28;20050;-86
2022/04/14 09:15:01;;;;;;;13.80;11.27;;;15.10;99.90;;;;;;5112405;28;20050;-72
2022/04/14 09:17:27;;;;;;;12.15;10.13;;;15.20;99.90;;;;;;5102763;27;20043;-79
2022/04/14 09:19:53;;;;;;;12.48;9.77;;;15.20;99.90;;;;;;5124064;27;20043;-80
2022/04/14 09:22:20;;;;;;;11.50;9.52;;;15.30;99.90;;;;;;5093396;28;20055;-79
2022/04/14 09:24:51;;;;;;;11.48;10.18;;;15.40;99.90;;;;;;5104142;28;20418;-81
2022/04/14 09:27:26;;;;;;;15.70;10.05;;;15.50;99.90;;;;;;5100000;28;20044;-79
2022/04/14 09:29:56;;;;;;;14.52;9.73;;;15.50;99.90;;;;;;5112510;28;20086;-82
2022/04/14 09:32:34;;;;;;;10.45;9.15;;;15.60;99.90;;;;;;5095245;28;20092;-81
2022/04/14 09:35:03;;;;;;;12.23;9.93;;;15.60;99.90;;;;;;5094788;28;20051;-84
2022/04/14 09:37:29;;;;;;;12.68;10.38;;;15.70;99.90;;;;;;5113591;28;20044;-80
2022/04/14 09:40:00;;;;;;;15.70;10.60;;;15.70;99.90;;;;;;5115418;27;20039;-82
2022/04/14 09:42:28;;;;;;;17.40;11.60;;;15.70;99.90;;;;;;5133609;27;20073;-82
2022/04/14 09:44:54;;;;;;;13.85;10.77;;;15.80;99.90;;;;;;5137133;27;20148;-83
2022/04/14 09:47:24;;;;;;;11.75;9.82;;;15.80;99.90;;;;;;5123612;27;20046;-81
2022/04/14 09:49:49;;;;;;;15.13;10.65;;;15.90;99.90;;;;;;5123161;27;20117;-82
2022/04/14 09:52:15;;;;;;;13.15;9.45;;;15.90;99.90;;;;;;5112462;28;20477;-79
2022/04/14 09:54:41;;;;;;;12.93;9.88;;;16.00;99.90;;;;;;5086450;28;20428;-81
2022/04/14 09:57:10;;;;;;;11.07;8.45;;;16.30;99.90;;;;;;5094559;28;20075;-75
2022/04/14 09:59:40;;;;;;;11.63;9.30;;;16.10;99.90;;;;;;5076234;28;20067;-78
2022/04/14 10:02:16;;;;;;;8.05;6.93;;;16.20;99.90;;;;;;5091105;28;20044;-78
2022/04/14 10:04:46;;;;;;;11.32;5.93;;;16.20;99.90;;;;;;5073538;28;20044;-78
2022/04/14 10:07:19;;;;;;;5.85;4.88;;;16.20;99.90;;;;;;5073305;28;20097;-78
2022/04/14 10:09:50;;;;;;;7.18;5.38;;;16.10;99.90;;;;;;5092374;28;20039;-78
2022/04/14 10:12:19;;;;;;;5.63;4.63;;;16.10;99.90;;;;;;5074224;28;20486;-78
2022/04/14 10:14:56;;;;;;;6.20;4.35;;;16.30;99.90;;;;;;5091641;28;20079;-78
2022/04/14 10:17:26;;;;;;;6.72;4.65;;;16.40;99.90;;;;;;5091324;28;20040;-78
2022/04/14 10:19:52;;;;;;;5.60;4.78;;;16.40;99.90;;;;;;5074029;28;20062;-78
2022/04/14 10:22:19;;;;;;;6.57;4.70;;;16.30;99.90;;;;;;5092472;28;20035;-79
2022/04/14 10:24:46;;;;;;;6.30;3.97;;;16.30;99.90;;;;;;5073589;28;20048;-79
2022/04/14 10:27:13;;;;;;;7.95;4.20;;;16.40;99.90;;;;;;5073882;28;20036;-78
2022/04/14 10:29:40;;;;;;;5.97;3.63;;;16.40;99.90;;;;;;5073875;28;20406;-78
2022/04/14 10:32:07;;;;;;;4.43;3.58;;;16.50;99.90;;;;;;5091365;28;20075;-78
2022/04/14 10:34:33;;;;;;;5.80;4.47;;;16.60;99.90;;;;;;5074090;28;20051;-78
2022/04/14 10:37:02;;;;;;;4.22;3.45;;;16.70;99.90;;;;;;5073974;28;20047;-78
2022/04/14 10:39:30;;;;;;;4.50;3.35;;;16.80;99.90;;;;;;5099596;28;20079;-78
2022/04/14 10:41:56;;;;;;;4.53;3.40;;;16.90;99.90;;;;;;5073552;28;20036;-79
2022/04/14 10:44:23;;;;;;;7.18;4.63;;;16.90;99.90;;;;;;5092345;28;20040;-78
2022/04/14 10:46:51;;;;;;;7.45;3.92;;;16.80;99.90;;;;;;5073565;28;20073;-78
2022/04/14 10:49:24;;;;;;;3.78;3.05;;;16.80;99.90;;;;;;5074117;28;20372;-78
2022/04/14 10:51:53;;;;;;;5.93;2.67;;;16.90;99.90;;;;;;5073790;28;20093;-78
2022/04/14 10:54:19;;;;;;;4.65;2.50;;;17.00;99.90;;;;;;5072776;28;20044;-78
2022/04/14 10:56:52;;;;;;;6.28;3.80;;;17.10;99.90;;;;;;5073369;28;20052;-78
2022/04/14 10:59:41;;;;;;;6.03;4.95;;;17.30;99.90;;;;;;5072573;28;20044;-79
2022/04/14 11:02:07;;;;;;;9.02;5.40;;;17.10;99.90;;;;;;5090976;28;20478;-79
2022/04/14 11:04:42;;;;;;;8.25;4.68;;;16.80;99.90;;;;;;5091335;28;20398;-78
2022/04/14 11:07:16;;;;;;;5.50;4.43;;;16.50;99.90;;;;;;5072671;28;20056;-78
2022/04/14 11:09:42;;;;;;;7.10;4.35;;;16.50;99.90;;;;;;5073479;28;20056;-78
2022/04/14 11:12:08;;;;;;;5.50;3.83;;;16.50;99.90;;;;;;5091529;28;20055;-78
2022/04/14 11:14:35;;;;;;;6.22;3.92;;;16.50;99.90;;;;;;5091111;28;20131;-78
2022/04/14 11:17:03;;;;;;;6.68;4.13;;;16.60;99.90;;;;;;5072975;28;20131;-78
2022/04/14 11:19:29;;;;;;;8.02;4.65;;;16.70;99.90;;;;;;5073231;28;20503;-78
2022/04/14 11:22:12;;;;;;;6.00;4.50;;;16.80;99.90;;;;;;5090615;28;20038;-78
2022/04/14 11:24:42;;;;;;;5.20;3.90;;;16.90;99.90;;;;;;5073393;28;20055;-78
2022/04/14 11:27:19;;;;;;;6.28;4.90;;;17.10;99.90;;;;;;5073093;28;20079;-78
2022/04/14 11:29:47;;;;;;;6.35;4.10;;;17.10;99.90;;;;;;5091655;28;20131;-78
2022/04/14 11:32:14;;;;;;;7.13;4.13;;;17.10;99.90;;;;;;5073104;28;20098;-79
2022/04/14 11:34:40;;;;;;;5.72;3.40;;;17.10;99.90;;;;;;5108717;28;20043;-83
2022/04/14 11:37:37;;;;;;;6.57;3.47;;;17.20;99.90;;;;;;5126024;28;20092;-82
2022/04/14 11:40:22;;;;;;;6.40;4.75;;;17.20;99.90;;;;;;5093391;28;20549;-81
2022/04/14 11:43:09;;;;;;;7.57;3.67;;;17.10;99.90;;;;;;5109485;28;20043;-81
2022/04/14 11:45:35;;;;;;;6.90;4.28;;;17.00;99.90;;;;;;5111555;28;20042;-82
2022/04/14 11:48:03;;;;;;;9.90;4.50;;;18.10;99.90;;;;;;5093415;28;20048;-81
2022/04/14 11:50:32;;;;;;;5.90;3.90;;;17.10;99.90;;;;;;5111047;28;20113;-82
2022/04/14 11:53:00;;;;;;;7.95;4.80;;;17.20;99.90;;;;;;5094511;28;20112;-83
2022/04/14 11:55:40;;;;;;;6.20;3.78;;;17.20;99.90;;;;;;5092442;28;20431;-82
2022/04/14 11:58:10;;;;;;;4.75;3.03;;;17.30;99.90;;;;;;5099194;28;20100;-82
2022/04/14 12:00:46;;;;;;;4.20;3.28;;;17.30;99.90;;;;;;5085120;28;20157;-82
2022/04/14 12:03:13;;;;;;;8.35;3.55;;;17.30;99.90;;;;;;5089737;28;20105;-81
2022/04/14 12:05:40;;;;;;;7.00;4.03;;;17.30;99.90;;;;;;5101606;28;20039;-79
2022/04/14 12:08:10;;;;;;;6.90;3.83;;;17.40;99.90;;;;;;5074635;28;20487;-80
2022/04/14 12:10:36;;;;;;;6.47;3.65;;;17.40;99.90;;;;;;5090300;28;20040;-81
2022/04/14 12:13:10;;;;;;;6.80;3.47;;;17.40;99.90;;;;;;5076086;28;20084;-80
2022/04/14 12:15:36;;;;;;;7.20;3.63;;;17.30;99.90;;;;;;5088693;28;20052;-81
2022/04/14 12:18:06;;;;;;;6.47;3.53;;;17.90;99.90;;;;;;5098958;28;20425;-80
2022/04/14 12:20:40;;;;;;;5.15;2.72;;;17.20;99.90;;;;;;5076005;28;20050;-76
2022/04/14 12:23:10;;;;;;;5.43;3.28;;;17.20;99.90;;;;;;5079810;28;20055;-79
2022/04/14 12:25:39;;;;;;;5.97;3.50;;;17.20;99.90;;;;;;5095812;28;20051;-79
2022/04/14 12:28:06;;;;;;;4.03;3.38;;;17.20;99.90;;;;;;5115023;28;20062;-81
2022/04/14 12:30:33;;;;;;;6.65;3.78;;;17.10;99.90;;;;;;5114049;28;20040;-80
2022/04/14 12:33:06;;;;;;;8.63;3.90;;;17.20;99.90;;;;;;5114087;28;20086;-80
2022/04/14 12:35:36;;;;;;;10.00;5.00;;;16.90;99.90;;;;;;5096041;28;20036;-80
2022/04/14 12:38:21;;;;;;;4.93;3.88;;;16.70;99.90;;;;;;5095297;28;20071;-80